sensor_id;sensor_type;location;lat;lon;timestamp;P1;durP1;ratioP1;P2;durP2;ratioP2
16314;SDS011;8266;52.150;4.768;2023-07-13T00:01:44;8.43;;;2.47;;
16314;SDS011;8266;52.150;4.768;2023-07-13T00:04:16;7.78;;;2.28;;
16314;SDS011;8266;52.150;4.768;2023-07-13T00:06:43;9.18;;;2.60;;
16314;SDS011;8266;52.150;4.768;2023-07-13T00:09:11;9.43;;;2.30;;
16314;SDS011;8266;52.150;4.768;2023-07-13T00:11:39;6.97;;;2.10;;
16314;SDS011;8266;52.150;4.768;2023-07-13T00:14:07;9.32;;;2.38;;
16314;SDS011;8266;52.150;4.768;2023-07-13T00:16:35;8.95;;;2.60;;
16314;SDS011;8266;52.150;4.768;2023-07-13T00:19:02;9.32;;;2.35;;
16314;SDS011;8266;52.150;4.768;2023-07-13T00:21:31;7.88;;;2.25;;
16314;SDS011;8266;52.150;4.768;2023-07-13T00:23:59;12.13;;;2.80;;
16314;SDS011;8266;52.150;4.768;2023-07-13T00:26:26;8.90;;;2.38;;
16314;SDS011;8266;52.150;4.768;2023-07-13T00:28:53;7.72;;;2.72;;
16314;SDS011;8266;52.150;4.768;2023-07-13T00:31:20;6.60;;;2.10;;
16314;SDS011;8266;52.150;4.768;2023-07-13T00:33:47;7.40;;;2.08;;
16314;SDS011;8266;52.150;4.768;2023-07-13T00:36:15;9.05;;;2.85;;
16314;SDS011;8266;52.150;4.768;2023-07-13T00:38:43;8.50;;;2.60;;
16314;SDS011;8266;52.150;4.768;2023-07-13T00:41:10;10.38;;;3.28;;
16314;SDS011;8266;52.150;4.768;2023-07-13T00:43:37;12.38;;;2.60;;
16314;SDS011;8266;52.150;4.768;2023-07-13T00:46:10;9.15;;;2.25;;
16314;SDS011;8266;52.150;4.768;2023-07-13T00:48:40;7.60;;;2.10;;
16314;SDS011;8266;52.150;4.768;2023-07-13T00:51:10;7.72;;;2.28;;
16314;SDS011;8266;52.150;4.768;2023-07-13T00:53:38;10.40;;;2.40;;
16314;SDS011;8266;52.150;4.768;2023-07-13T00:56:06;9.55;;;2.17;;
16314;SDS011;8266;52.150;4.768;2023-07-13T00:58:34;6.68;;;2.28;;
16314;SDS011;8266;52.150;4.768;2023-07-13T01:01:01;7.53;;;2.55;;
16314;SDS011;8266;52.150;4.768;2023-07-13T01:03:28;9.05;;;2.60;;
16314;SDS011;8266;52.150;4.768;2023-07-13T01:05:56;7.57;;;2.30;;
16314;SDS011;8266;52.150;4.768;2023-07-13T01:08:23;8.30;;;2.17;;
16314;SDS011;8266;52.150;4.768;2023-07-13T01:10:53;9.45;;;2.45;;
16314;SDS011;8266;52.150;4.768;2023-07-13T01:13:22;7.57;;;2.38;;
16314;SDS011;8266;52.150;4.768;2023-07-13T01:15:50;6.78;;;2.78;;
16314;SDS011;8266;52.150;4.768;2023-07-13T01:18:20;6.28;;;2.03;;
16314;SDS011;8266;52.150;4.768;2023-07-13T01:20:54;7.88;;;2.13;;
16314;SDS011;8266;52.150;4.768;2023-07-13T01:23:22;6.32;;;2.20;;
16314;SDS011;8266;52.150;4.768;2023-07-13T01:25:50;5.63;;;1.73;;
16314;SDS011;8266;52.150;4.768;2023-07-13T01:28:21;6.13;;;2.10;;
16314;SDS011;8266;52.150;4.768;2023-07-13T01:30:52;3.67;;;1.60;;
16314;SDS011;8266;52.150;4.768;2023-07-13T01:33:19;7.35;;;1.70;;
16314;SDS011;8266;52.150;4.768;2023-07-13T01:35:47;7.10;;;1.98;;
16314;SDS011;8266;52.150;4.768;2023-07-13T01:38:17;6.38;;;1.83;;
16314;SDS011;8266;52.150;4.768;2023-07-13T01:40:46;7.70;;;2.15;;
16314;SDS011;8266;52.150;4.768;2023-07-13T01:43:13;4.57;;;1.75;;
16314;SDS011;8266;52.150;4.768;2023-07-13T01:45:40;5.30;;;1.92;;
16314;SDS011;8266;52.150;4.768;2023-07-13T01:48:09;5.63;;;1.85;;
16314;SDS011;8266;52.150;4.768;2023-07-13T01:50:36;6.85;;;1.73;;
16314;SDS011;8266;52.150;4.768;2023-07-13T01:53:03;6.30;;;1.88;;
16314;SDS011;8266;52.150;4.768;2023-07-13T01:55:32;6.10;;;2.00;;
16314;SDS011;8266;52.150;4.768;2023-07-13T01:58:00;6.95;;;2.00;;
16314;SDS011;8266;52.150;4.768;2023-07-13T02:00:27;4.40;;;1.50;;
16314;SDS011;8266;52.150;4.768;2023-07-13T02:02:53;8.52;;;2.10;;
16314;SDS011;8266;52.150;4.768;2023-07-13T02:05:20;4.72;;;1.42;;
16314;SDS011;8266;52.150;4.768;2023-07-13T02:07:48;7.55;;;1.77;;
16314;SDS011;8266;52.150;4.768;2023-07-13T02:10:15;6.35;;;1.55;;
16314;SDS011;8266;52.150;4.768;2023-07-13T02:12:43;5.53;;;1.45;;
16314;SDS011;8266;52.150;4.768;2023-07-13T02:15:10;5.63;;;1.45;;
16314;SDS011;8266;52.150;4.768;2023-07-13T02:17:37;7.30;;;1.60;;
16314;SDS011;8266;52.150;4.768;2023-07-13T02:20:05;8.85;;;1.67;;
16314;SDS011;8266;52.150;4.768;2023-07-13T02:22:33;3.75;;;1.45;;
16314;SDS011;8266;52.150;4.768;2023-07-13T02:25:00;5.50;;;1.70;;
16314;SDS011;8266;52.150;4.768;2023-07-13T02:27:27;3.47;;;1.50;;
16314;SDS011;8266;52.150;4.768;2023-07-13T02:29:55;5.22;;;1.80;;
16314;SDS011;8266;52.150;4.768;2023-07-13T02:32:22;4.32;;;1.67;;
16314;SDS011;8266;52.150;4.768;2023-07-13T02:34:51;4.18;;;1.65;;
16314;SDS011;8266;52.150;4.768;2023-07-13T02:37:19;3.13;;;1.40;;
16314;SDS011;8266;52.150;4.768;2023-07-13T02:39:46;4.05;;;1.30;;
16314;SDS011;8266;52.150;4.768;2023-07-13T02:42:14;5.47;;;1.50;;
16314;SDS011;8266;52.150;4.768;2023-07-13T02:44:41;5.00;;;1.63;;
16314;SDS011;8266;52.150;4.768;2023-07-13T02:47:09;3.95;;;1.20;;
16314;SDS011;8266;52.150;4.768;2023-07-13T02:49:36;3.00;;;1.00;;
16314;SDS011;8266;52.150;4.768;2023-07-13T02:52:04;4.43;;;1.20;;
16314;SDS011;8266;52.150;4.768;2023-07-13T02:54:31;4.55;;;1.02;;
16314;SDS011;8266;52.150;4.768;2023-07-13T02:56:58;1.90;;;0.95;;
16314;SDS011;8266;52.150;4.768;2023-07-13T02:59:25;5.22;;;1.42;;
16314;SDS011;8266;52.150;4.768;2023-07-13T03:01:52;4.68;;;1.23;;
16314;SDS011;8266;52.150;4.768;2023-07-13T03:04:21;3.33;;;1.13;;
16314;SDS011;8266;52.150;4.768;2023-07-13T03:06:48;2.65;;;1.05;;
16314;SDS011;8266;52.150;4.768;2023-07-13T03:09:15;4.20;;;1.38;;
16314;SDS011;8266;52.150;4.768;2023-07-13T03:11:42;2.95;;;1.17;;
16314;SDS011;8266;52.150;4.768;2023-07-13T03:14:09;4.68;;;1.08;;
16314;SDS011;8266;52.150;4.768;2023-07-13T03:16:36;4.05;;;1.42;;
16314;SDS011;8266;52.150;4.768;2023-07-13T03:19:03;5.13;;;1.10;;
16314;SDS011;8266;52.150;4.768;2023-07-13T03:21:31;2.70;;;1.27;;
16314;SDS011;8266;52.150;4.768;2023-07-13T03:23:58;3.38;;;1.38;;
16314;SDS011;8266;52.150;4.768;2023-07-13T03:26:25;3.88;;;1.20;;
16314;SDS011;8266;52.150;4.768;2023-07-13T03:28:52;4.78;;;1.20;;
16314;SDS011;8266;52.150;4.768;2023-07-13T03:31:19;3.25;;;1.05;;
16314;SDS011;8266;52.150;4.768;2023-07-13T03:33:48;3.20;;;0.95;;
16314;SDS011;8266;52.150;4.768;2023-07-13T03:36:16;3.92;;;1.48;;
16314;SDS011;8266;52.150;4.768;2023-07-13T03:38:47;6.18;;;1.27;;
16314;SDS011;8266;52.150;4.768;2023-07-13T03:41:15;5.55;;;1.42;;
16314;SDS011;8266;52.150;4.768;2023-07-13T03:43:42;3.65;;;1.38;;
16314;SDS011;8266;52.150;4.768;2023-07-13T03:46:09;4.80;;;1.40;;
16314;SDS011;8266;52.150;4.768;2023-07-13T03:48:36;4.88;;;1.23;;
16314;SDS011;8266;52.150;4.768;2023-07-13T03:51:05;4.28;;;1.50;;
16314;SDS011;8266;52.150;4.768;2023-07-13T03:53:32;6.28;;;1.95;;
16314;SDS011;8266;52.150;4.768;2023-07-13T03:56:00;7.57;;;1.70;;
16314;SDS011;8266;52.150;4.768;2023-07-13T03:58:29;6.43;;;1.90;;
16314;SDS011;8266;52.150;4.768;2023-07-13T04:00:58;3.97;;;1.88;;
16314;SDS011;8266;52.150;4.768;2023-07-13T04:03:26;5.80;;;1.63;;
16314;SDS011;8266;52.150;4.768;2023-07-13T04:05:53;3.10;;;1.50;;
16314;SDS011;8266;52.150;4.768;2023-07-13T04:08:24;7.90;;;1.45;;
16314;SDS011;8266;52.150;4.768;2023-07-13T04:10:52;8.32;;;1.88;;
16314;SDS011;8266;52.150;4.768;2023-07-13T04:13:20;8.80;;;1.92;;
16314;SDS011;8266;52.150;4.768;2023-07-13T04:15:47;7.32;;;1.90;;
16314;SDS011;8266;52.150;4.768;2023-07-13T04:18:14;8.65;;;2.30;;
16314;SDS011;8266;52.150;4.768;2023-07-13T04:20:41;6.20;;;1.65;;
16314;SDS011;8266;52.150;4.768;2023-07-13T04:23:08;8.13;;;1.83;;
16314;SDS011;8266;52.150;4.768;2023-07-13T04:25:35;6.22;;;2.08;;
16314;SDS011;8266;52.150;4.768;2023-07-13T04:28:03;9.98;;;2.35;;
16314;SDS011;8266;52.150;4.768;2023-07-13T04:30:32;5.72;;;1.65;;
16314;SDS011;8266;52.150;4.768;2023-07-13T04:32:59;6.10;;;1.90;;
16314;SDS011;8266;52.150;4.768;2023-07-13T04:35:26;5.88;;;1.80;;
16314;SDS011;8266;52.150;4.768;2023-07-13T04:37:53;5.35;;;2.05;;
16314;SDS011;8266;52.150;4.768;2023-07-13T04:40:20;8.52;;;2.53;;
16314;SDS011;8266;52.150;4.768;2023-07-13T04:42:47;5.47;;;2.10;;
16314;SDS011;8266;52.150;4.768;2023-07-13T04:45:14;9.13;;;2.20;;
16314;SDS011;8266;52.150;4.768;2023-07-13T04:47:43;8.70;;;2.17;;
16314;SDS011;8266;52.150;4.768;2023-07-13T04:50:12;7.03;;;2.30;;
16314;SDS011;8266;52.150;4.768;2023-07-13T04:52:45;5.05;;;1.90;;
16314;SDS011;8266;52.150;4.768;2023-07-13T04:55:12;7.72;;;2.25;;
16314;SDS011;8266;52.150;4.768;2023-07-13T04:57:39;8.80;;;2.17;;
16314;SDS011;8266;52.150;4.768;2023-07-13T05:00:06;8.30;;;1.98;;
16314;SDS011;8266;52.150;4.768;2023-07-13T05:02:35;7.00;;;2.20;;
16314;SDS011;8266;52.150;4.768;2023-07-13T05:05:05;7.18;;;1.88;;
16314;SDS011;8266;52.150;4.768;2023-07-13T05:07:33;5.70;;;2.00;;
16314;SDS011;8266;52.150;4.768;2023-07-13T05:10:00;7.65;;;1.95;;
16314;SDS011;8266;52.150;4.768;2023-07-13T05:12:28;7.55;;;2.30;;
16314;SDS011;8266;52.150;4.768;2023-07-13T05:14:55;6.63;;;1.58;;
16314;SDS011;8266;52.150;4.768;2023-07-13T05:17:22;5.63;;;1.75;;
16314;SDS011;8266;52.150;4.768;2023-07-13T05:19:49;5.60;;;1.70;;
16314;SDS011;8266;52.150;4.768;2023-07-13T05:22:17;6.88;;;2.75;;
16314;SDS011;8266;52.150;4.768;2023-07-13T05:24:44;7.38;;;1.77;;
16314;SDS011;8266;52.150;4.768;2023-07-13T05:27:11;5.50;;;1.92;;
16314;SDS011;8266;52.150;4.768;2023-07-13T05:29:38;6.00;;;1.85;;
16314;SDS011;8266;52.150;4.768;2023-07-13T05:32:06;8.60;;;2.25;;
16314;SDS011;8266;52.150;4.768;2023-07-13T05:34:33;7.60;;;2.13;;
16314;SDS011;8266;52.150;4.768;2023-07-13T05:37:00;11.43;;;3.22;;
16314;SDS011;8266;52.150;4.768;2023-07-13T05:39:28;8.95;;;2.28;;
16314;SDS011;8266;52.150;4.768;2023-07-13T05:41:55;6.88;;;2.60;;
16314;SDS011;8266;52.150;4.768;2023-07-13T05:44:22;4.78;;;2.08;;
16314;SDS011;8266;52.150;4.768;2023-07-13T05:46:49;6.53;;;2.20;;
16314;SDS011;8266;52.150;4.768;2023-07-13T05:49:16;6.05;;;2.28;;
16314;SDS011;8266;52.150;4.768;2023-07-13T05:51:43;7.13;;;2.42;;
16314;SDS011;8266;52.150;4.768;2023-07-13T05:54:10;5.13;;;2.10;;
16314;SDS011;8266;52.150;4.768;2023-07-13T05:56:38;3.72;;;1.80;;
16314;SDS011;8266;52.150;4.768;2023-07-13T05:59:05;3.17;;;1.70;;
16314;SDS011;8266;52.150;4.768;2023-07-13T06:01:32;3.45;;;1.52;;
16314;SDS011;8266;52.150;4.768;2023-07-13T06:03:59;4.35;;;1.67;;
16314;SDS011;8266;52.150;4.768;2023-07-13T06:06:26;4.30;;;1.88;;
16314;SDS011;8266;52.150;4.768;2023-07-13T06:08:53;4.10;;;1.40;;
16314;SDS011;8266;52.150;4.768;2023-07-13T06:11:20;3.97;;;1.50;;
16314;SDS011;8266;52.150;4.768;2023-07-13T06:13:50;4.55;;;1.70;;
16314;SDS011;8266;52.150;4.768;2023-07-13T06:16:18;3.72;;;1.50;;
16314;SDS011;8266;52.150;4.768;2023-07-13T06:18:45;5.30;;;1.58;;
16314;SDS011;8266;52.150;4.768;2023-07-13T06:21:13;3.70;;;1.42;;
16314;SDS011;8266;52.150;4.768;2023-07-13T06:23:41;3.03;;;1.30;;
16314;SDS011;8266;52.150;4.768;2023-07-13T06:26:10;4.72;;;1.52;;
16314;SDS011;8266;52.150;4.768;2023-07-13T06:28:37;3.47;;;1.60;;
16314;SDS011;8266;52.150;4.768;2023-07-13T06:31:07;6.38;;;2.05;;
16314;SDS011;8266;52.150;4.768;2023-07-13T06:33:35;6.57;;;1.90;;
16314;SDS011;8266;52.150;4.768;2023-07-13T06:36:03;3.42;;;1.55;;
16314;SDS011;8266;52.150;4.768;2023-07-13T06:38:32;4.40;;;1.40;;
16314;SDS011;8266;52.150;4.768;2023-07-13T06:41:00;2.20;;;1.35;;
16314;SDS011;8266;52.150;4.768;2023-07-13T06:43:27;3.75;;;1.65;;
16314;SDS011;8266;52.150;4.768;2023-07-13T06:45:55;3.50;;;1.65;;
16314;SDS011;8266;52.150;4.768;2023-07-13T06:48:23;2.97;;;1.27;;
16314;SDS011;8266;52.150;4.768;2023-07-13T06:50:50;2.92;;;1.40;;
16314;SDS011;8266;52.150;4.768;2023-07-13T06:53:18;4.95;;;1.55;;
16314;SDS011;8266;52.150;4.768;2023-07-13T06:55:46;4.05;;;1.48;;
16314;SDS011;8266;52.150;4.768;2023-07-13T06:58:14;3.03;;;1.15;;
16314;SDS011;8266;52.150;4.768;2023-07-13T07:00:42;3.75;;;1.65;;
16314;SDS011;8266;52.150;4.768;2023-07-13T07:03:09;4.18;;;1.60;;
16314;SDS011;8266;52.150;4.768;2023-07-13T07:05:37;4.88;;;1.30;;
16314;SDS011;8266;52.150;4.768;2023-07-13T07:08:04;3.58;;;1.42;;
16314;SDS011;8266;52.150;4.768;2023-07-13T07:10:31;2.13;;;1.20;;
16314;SDS011;8266;52.150;4.768;2023-07-13T07:12:59;3.47;;;1.30;;
16314;SDS011;8266;52.150;4.768;2023-07-13T07:15:26;4.53;;;1.45;;
16314;SDS011;8266;52.150;4.768;2023-07-13T07:17:53;6.32;;;1.92;;
16314;SDS011;8266;52.150;4.768;2023-07-13T07:20:20;5.18;;;1.67;;
16314;SDS011;8266;52.150;4.768;2023-07-13T07:22:48;4.97;;;1.73;;
16314;SDS011;8266;52.150;4.768;2023-07-13T07:25:15;4.00;;;1.45;;
16314;SDS011;8266;52.150;4.768;2023-07-13T07:27:42;4.15;;;1.10;;
16314;SDS011;8266;52.150;4.768;2023-07-13T07:30:10;4.55;;;1.67;;
16314;SDS011;8266;52.150;4.768;2023-07-13T07:32:37;3.08;;;1.33;;
16314;SDS011;8266;52.150;4.768;2023-07-13T07:35:05;3.92;;;1.90;;
16314;SDS011;8266;52.150;4.768;2023-07-13T07:37:32;4.43;;;1.30;;
16314;SDS011;8266;52.150;4.768;2023-07-13T07:40:00;5.18;;;1.67;;
16314;SDS011;8266;52.150;4.768;2023-07-13T07:42:28;4.03;;;1.50;;
16314;SDS011;8266;52.150;4.768;2023-07-13T07:44:54;4.80;;;1.35;;
16314;SDS011;8266;52.150;4.768;2023-07-13T07:47:21;3.20;;;1.15;;
16314;SDS011;8266;52.150;4.768;2023-07-13T07:49:49;4.38;;;1.33;;
16314;SDS011;8266;52.150;4.768;2023-07-13T07:52:16;5.55;;;1.50;;
16314;SDS011;8266;52.150;4.768;2023-07-13T07:54:43;2.17;;;1.20;;
16314;SDS011;8266;52.150;4.768;2023-07-13T07:57:11;2.22;;;1.30;;
16314;SDS011;8266;52.150;4.768;2023-07-13T07:59:38;4.32;;;1.50;;
16314;SDS011;8266;52.150;4.768;2023-07-13T08:02:06;2.50;;;1.20;;
16314;SDS011;8266;52.150;4.768;2023-07-13T08:04:34;3.70;;;1.10;;
16314;SDS011;8266;52.150;4.768;2023-07-13T08:07:01;2.03;;;1.10;;
16314;SDS011;8266;52.150;4.768;2023-07-13T08:09:28;2.20;;;1.48;;
16314;SDS011;8266;52.150;4.768;2023-07-13T08:11:55;2.33;;;1.20;;
16314;SDS011;8266;52.150;4.768;2023-07-13T08:14:24;3.85;;;1.55;;
16314;SDS011;8266;52.150;4.768;2023-07-13T08:16:51;5.25;;;1.50;;
16314;SDS011;8266;52.150;4.768;2023-07-13T08:19:19;4.95;;;1.80;;
16314;SDS011;8266;52.150;4.768;2023-07-13T08:21:46;4.05;;;1.58;;
16314;SDS011;8266;52.150;4.768;2023-07-13T08:24:14;4.20;;;1.70;;
16314;SDS011;8266;52.150;4.768;2023-07-13T08:26:43;2.72;;;1.30;;
16314;SDS011;8266;52.150;4.768;2023-07-13T08:29:11;3.47;;;1.20;;
16314;SDS011;8266;52.150;4.768;2023-07-13T08:31:40;2.05;;;1.38;;
16314;SDS011;8266;52.150;4.768;2023-07-13T08:34:07;3.30;;;1.40;;
16314;SDS011;8266;52.150;4.768;2023-07-13T08:36:34;5.80;;;1.80;;
16314;SDS011;8266;52.150;4.768;2023-07-13T08:39:01;4.90;;;1.95;;
16314;SDS011;8266;52.150;4.768;2023-07-13T08:41:28;5.80;;;1.98;;
16314;SDS011;8266;52.150;4.768;2023-07-13T08:43:56;6.32;;;1.95;;
16314;SDS011;8266;52.150;4.768;2023-07-13T08:46:25;2.67;;;1.50;;
16314;SDS011;8266;52.150;4.768;2023-07-13T08:48:57;3.42;;;1.73;;
16314;SDS011;8266;52.150;4.768;2023-07-13T08:51:33;2.50;;;1.33;;
16314;SDS011;8266;52.150;4.768;2023-07-13T08:54:05;3.28;;;1.52;;
16314;SDS011;8266;52.150;4.768;2023-07-13T08:56:42;3.28;;;1.40;;
16314;SDS011;8266;52.150;4.768;2023-07-13T08:59:13;3.25;;;1.52;;
16314;SDS011;8266;52.150;4.768;2023-07-13T09:04:45;2.38;;;1.58;;
16314;SDS011;8266;52.150;4.768;2023-07-13T09:07:24;5.05;;;1.55;;
16314;SDS011;8266;52.150;4.768;2023-07-13T09:10:01;3.75;;;1.58;;
16314;SDS011;8266;52.150;4.768;2023-07-13T09:12:40;4.80;;;1.50;;
16314;SDS011;8266;52.150;4.768;2023-07-13T09:15:21;2.33;;;1.17;;
16314;SDS011;8266;52.150;4.768;2023-07-13T09:17:57;4.43;;;1.40;;
16314;SDS011;8266;52.150;4.768;2023-07-13T09:20:29;3.78;;;1.50;;
16314;SDS011;8266;52.150;4.768;2023-07-13T09:23:03;3.58;;;1.38;;
16314;SDS011;8266;52.150;4.768;2023-07-13T09:25:36;5.63;;;1.40;;
16314;SDS011;8266;52.150;4.768;2023-07-13T09:28:09;4.03;;;1.80;;
16314;SDS011;8266;52.150;4.768;2023-07-13T09:30:40;4.10;;;1.20;;
16314;SDS011;8266;52.150;4.768;2023-07-13T09:33:16;3.83;;;1.60;;
16314;SDS011;8266;52.150;4.768;2023-07-13T09:35:45;3.55;;;1.48;;
16314;SDS011;8266;52.150;4.768;2023-07-13T09:38:13;4.00;;;1.20;;
16314;SDS011;8266;52.150;4.768;2023-07-13T09:40:49;3.78;;;1.50;;
16314;SDS011;8266;52.150;4.768;2023-07-13T09:43:25;5.57;;;1.77;;
16314;SDS011;8266;52.150;4.768;2023-07-13T09:45:54;2.00;;;1.25;;
16314;SDS011;8266;52.150;4.768;2023-07-13T09:48:21;3.97;;;1.38;;
16314;SDS011;8266;52.150;4.768;2023-07-13T09:50:51;2.53;;;1.30;;
16314;SDS011;8266;52.150;4.768;2023-07-13T09:53:21;2.28;;;1.17;;
16314;SDS011;8266;52.150;4.768;2023-07-13T09:55:49;2.63;;;1.35;;
16314;SDS011;8266;52.150;4.768;2023-07-13T09:58:18;2.35;;;1.25;;
16314;SDS011;8266;52.150;4.768;2023-07-13T10:00:53;4.57;;;1.55;;
16314;SDS011;8266;52.150;4.768;2023-07-13T10:03:23;3.28;;;1.45;;
16314;SDS011;8266;52.150;4.768;2023-07-13T10:05:53;2.67;;;1.17;;
16314;SDS011;8266;52.150;4.768;2023-07-13T10:08:23;6.75;;;1.40;;
16314;SDS011;8266;52.150;4.768;2023-07-13T10:10:59;5.20;;;1.85;;
16314;SDS011;8266;52.150;4.768;2023-07-13T10:13:34;5.35;;;1.58;;
16314;SDS011;8266;52.150;4.768;2023-07-13T10:16:03;2.88;;;1.27;;
16314;SDS011;8266;52.150;4.768;2023-07-13T10:18:35;5.10;;;1.52;;
16314;SDS011;8266;52.150;4.768;2023-07-13T10:21:12;3.55;;;1.42;;
16314;SDS011;8266;52.150;4.768;2023-07-13T10:23:41;4.53;;;1.50;;
16314;SDS011;8266;52.150;4.768;2023-07-13T10:26:11;2.95;;;1.50;;
16314;SDS011;8266;52.150;4.768;2023-07-13T10:28:41;3.55;;;1.33;;
16314;SDS011;8266;52.150;4.768;2023-07-13T10:31:13;2.38;;;1.20;;
16314;SDS011;8266;52.150;4.768;2023-07-13T10:33:42;2.53;;;1.30;;
16314;SDS011;8266;52.150;4.768;2023-07-13T10:36:15;4.97;;;1.30;;
16314;SDS011;8266;52.150;4.768;2023-07-13T10:38:46;3.38;;;1.30;;
16314;SDS011;8266;52.150;4.768;2023-07-13T10:41:18;2.30;;;1.23;;
16314;SDS011;8266;52.150;4.768;2023-07-13T10:43:47;2.17;;;1.33;;
16314;SDS011;8266;52.150;4.768;2023-07-13T10:46:18;3.08;;;1.45;;
16314;SDS011;8266;52.150;4.768;2023-07-13T10:48:48;3.40;;;1.40;;
16314;SDS011;8266;52.150;4.768;2023-07-13T10:51:20;3.00;;;1.55;;
16314;SDS011;8266;52.150;4.768;2023-07-13T10:54:10;2.47;;;1.20;;
16314;SDS011;8266;52.150;4.768;2023-07-13T10:56:43;2.15;;;1.33;;
16314;SDS011;8266;52.150;4.768;2023-07-13T10:59:12;3.75;;;1.45;;
16314;SDS011;8266;52.150;4.768;2023-07-13T11:01:47;2.90;;;1.40;;
16314;SDS011;8266;52.150;4.768;2023-07-13T11:04:19;2.75;;;1.00;;
16314;SDS011;8266;52.150;4.768;2023-07-13T11:06:50;3.70;;;1.50;;
16314;SDS011;8266;52.150;4.768;2023-07-13T11:09:30;3.17;;;1.70;;
16314;SDS011;8266;52.150;4.768;2023-07-13T11:12:06;2.45;;;1.55;;
16314;SDS011;8266;52.150;4.768;2023-07-13T11:14:42;3.08;;;1.50;;
16314;SDS011;8266;52.150;4.768;2023-07-13T11:17:33;2.08;;;1.35;;
16314;SDS011;8266;52.150;4.768;2023-07-13T11:20:09;4.88;;;1.60;;
16314;SDS011;8266;52.150;4.768;2023-07-13T11:22:50;4.57;;;1.55;;
16314;SDS011;8266;52.150;4.768;2023-07-13T11:25:26;3.92;;;1.50;;
16314;SDS011;8266;52.150;4.768;2023-07-13T11:30:48;2.85;;;1.48;;
16314;SDS011;8266;52.150;4.768;2023-07-13T11:33:28;5.18;;;1.58;;
16314;SDS011;8266;52.150;4.768;2023-07-13T11:36:15;4.30;;;1.48;;
16314;SDS011;8266;52.150;4.768;2023-07-13T11:38:50;2.78;;;1.38;;
16314;SDS011;8266;52.150;4.768;2023-07-13T11:41:24;2.63;;;1.30;;
16314;SDS011;8266;52.150;4.768;2023-07-13T11:43:55;2.45;;;1.17;;
16314;SDS011;8266;52.150;4.768;2023-07-13T11:46:31;1.98;;;1.20;;
16314;SDS011;8266;52.150;4.768;2023-07-13T11:48:58;2.75;;;1.17;;
16314;SDS011;8266;52.150;4.768;2023-07-13T11:51:26;3.47;;;1.50;;
16314;SDS011;8266;52.150;4.768;2023-07-13T11:53:59;3.10;;;1.33;;
16314;SDS011;8266;52.150;4.768;2023-07-13T11:56:28;2.40;;;1.30;;
16314;SDS011;8266;52.150;4.768;2023-07-13T11:58:59;1.95;;;1.45;;
16314;SDS011;8266;52.150;4.768;2023-07-13T12:01:31;4.70;;;1.38;;
16314;SDS011;8266;52.150;4.768;2023-07-13T12:03:58;4.68;;;1.33;;
16314;SDS011;8266;52.150;4.768;2023-07-13T12:06:28;2.95;;;1.40;;
16314;SDS011;8266;52.150;4.768;2023-07-13T12:08:58;3.05;;;1.45;;
16314;SDS011;8266;52.150;4.768;2023-07-13T12:11:28;3.67;;;1.40;;
16314;SDS011;8266;52.150;4.768;2023-07-13T12:13:56;2.58;;;1.27;;
16314;SDS011;8266;52.150;4.768;2023-07-13T12:16:25;2.25;;;1.08;;
16314;SDS011;8266;52.150;4.768;2023-07-13T12:18:55;3.85;;;1.48;;
16314;SDS011;8266;52.150;4.768;2023-07-13T12:21:29;3.42;;;1.40;;
16314;SDS011;8266;52.150;4.768;2023-07-13T12:23:59;3.95;;;1.35;;
16314;SDS011;8266;52.150;4.768;2023-07-13T12:26:28;1.95;;;1.30;;
16314;SDS011;8266;52.150;4.768;2023-07-13T12:28:56;3.97;;;1.48;;
16314;SDS011;8266;52.150;4.768;2023-07-13T12:31:34;3.13;;;1.65;;
16314;SDS011;8266;52.150;4.768;2023-07-13T12:34:07;2.22;;;1.50;;
16314;SDS011;8266;52.150;4.768;2023-07-13T12:36:36;3.13;;;1.40;;
16314;SDS011;8266;52.150;4.768;2023-07-13T12:39:12;2.58;;;1.50;;
16314;SDS011;8266;52.150;4.768;2023-07-13T12:41:41;3.00;;;1.70;;
16314;SDS011;8266;52.150;4.768;2023-07-13T12:44:11;4.15;;;1.50;;
16314;SDS011;8266;52.150;4.768;2023-07-13T12:46:39;4.72;;;1.70;;
16314;SDS011;8266;52.150;4.768;2023-07-13T12:49:22;2.38;;;1.30;;
16314;SDS011;8266;52.150;4.768;2023-07-13T12:51:50;2.08;;;1.40;;
16314;SDS011;8266;52.150;4.768;2023-07-13T12:54:26;4.00;;;1.20;;
16314;SDS011;8266;52.150;4.768;2023-07-13T12:56:54;3.97;;;1.63;;
16314;SDS011;8266;52.150;4.768;2023-07-13T12:59:24;2.33;;;1.80;;
16314;SDS011;8266;52.150;4.768;2023-07-13T13:01:55;1.42;;;1.17;;
16314;SDS011;8266;52.150;4.768;2023-07-13T13:04:22;2.40;;;1.30;;
16314;SDS011;8266;52.150;4.768;2023-07-13T13:06:59;2.08;;;1.23;;
16314;SDS011;8266;52.150;4.768;2023-07-13T13:09:29;2.00;;;1.10;;
16314;SDS011;8266;52.150;4.768;2023-07-13T13:11:56;2.03;;;1.20;;
16314;SDS011;8266;52.150;4.768;2023-07-13T13:14:23;4.15;;;1.50;;
16314;SDS011;8266;52.150;4.768;2023-07-13T13:16:50;3.30;;;1.88;;
16314;SDS011;8266;52.150;4.768;2023-07-13T13:19:20;2.80;;;1.30;;
16314;SDS011;8266;52.150;4.768;2023-07-13T13:21:49;2.65;;;1.00;;
16314;SDS011;8266;52.150;4.768;2023-07-13T13:24:19;3.63;;;1.52;;
16314;SDS011;8266;52.150;4.768;2023-07-13T13:26:48;2.03;;;1.20;;
16314;SDS011;8266;52.150;4.768;2023-07-13T13:29:17;3.20;;;1.25;;
16314;SDS011;8266;52.150;4.768;2023-07-13T13:31:46;2.38;;;1.00;;
16314;SDS011;8266;52.150;4.768;2023-07-13T13:34:14;1.83;;;1.05;;
16314;SDS011;8266;52.150;4.768;2023-07-13T13:36:44;2.67;;;1.27;;
16314;SDS011;8266;52.150;4.768;2023-07-13T13:39:18;2.90;;;1.38;;
16314;SDS011;8266;52.150;4.768;2023-07-13T13:41:49;2.45;;;1.42;;
16314;SDS011;8266;52.150;4.768;2023-07-13T13:44:17;1.63;;;1.23;;
16314;SDS011;8266;52.150;4.768;2023-07-13T13:46:46;1.50;;;1.05;;
16314;SDS011;8266;52.150;4.768;2023-07-13T13:49:16;3.10;;;1.10;;
16314;SDS011;8266;52.150;4.768;2023-07-13T13:51:52;2.97;;;1.42;;
16314;SDS011;8266;52.150;4.768;2023-07-13T13:54:20;4.43;;;1.50;;
16314;SDS011;8266;52.150;4.768;2023-07-13T13:56:50;2.78;;;1.35;;
16314;SDS011;8266;52.150;4.768;2023-07-13T13:59:18;3.13;;;1.30;;
16314;SDS011;8266;52.150;4.768;2023-07-13T14:01:46;1.77;;;1.30;;
16314;SDS011;8266;52.150;4.768;2023-07-13T14:04:15;1.88;;;1.05;;
16314;SDS011;8266;52.150;4.768;2023-07-13T14:06:44;5.35;;;1.33;;
16314;SDS011;8266;52.150;4.768;2023-07-13T14:09:13;1.92;;;1.35;;
16314;SDS011;8266;52.150;4.768;2023-07-13T14:11:41;2.38;;;1.02;;
16314;SDS011;8266;52.150;4.768;2023-07-13T14:14:12;1.63;;;1.05;;
16314;SDS011;8266;52.150;4.768;2023-07-13T14:16:43;2.55;;;0.88;;
16314;SDS011;8266;52.150;4.768;2023-07-13T14:19:12;2.05;;;1.00;;
16314;SDS011;8266;52.150;4.768;2023-07-13T14:21:40;1.48;;;1.00;;
16314;SDS011;8266;52.150;4.768;2023-07-13T14:24:07;1.40;;;0.88;;
16314;SDS011;8266;52.150;4.768;2023-07-13T14:26:36;2.42;;;0.85;;
16314;SDS011;8266;52.150;4.768;2023-07-13T14:29:04;1.98;;;1.00;;
16314;SDS011;8266;52.150;4.768;2023-07-13T14:31:40;3.72;;;1.15;;
16314;SDS011;8266;52.150;4.768;2023-07-13T14:34:07;2.05;;;1.05;;
16314;SDS011;8266;52.150;4.768;2023-07-13T14:36:36;2.10;;;1.00;;
16314;SDS011;8266;52.150;4.768;2023-07-13T14:39:09;1.35;;;0.90;;
16314;SDS011;8266;52.150;4.768;2023-07-13T14:41:39;2.80;;;1.00;;
16314;SDS011;8266;52.150;4.768;2023-07-13T14:44:10;1.70;;;0.98;;
16314;SDS011;8266;52.150;4.768;2023-07-13T14:46:40;2.00;;;1.23;;
16314;SDS011;8266;52.150;4.768;2023-07-13T14:49:15;2.97;;;1.30;;
16314;SDS011;8266;52.150;4.768;2023-07-13T14:51:47;2.13;;;1.27;;
16314;SDS011;8266;52.150;4.768;2023-07-13T14:54:15;1.75;;;1.23;;
16314;SDS011;8266;52.150;4.768;2023-07-13T14:56:42;1.60;;;0.98;;
16314;SDS011;8266;52.150;4.768;2023-07-13T14:59:09;2.30;;;1.00;;
16314;SDS011;8266;52.150;4.768;2023-07-13T15:01:37;1.50;;;0.93;;
16314;SDS011;8266;52.150;4.768;2023-07-13T15:04:07;2.00;;;0.93;;
16314;SDS011;8266;52.150;4.768;2023-07-13T15:09:24;1.70;;;1.25;;
16314;SDS011;8266;52.150;4.768;2023-07-13T15:11:51;1.60;;;0.90;;
16314;SDS011;8266;52.150;4.768;2023-07-13T15:14:18;1.75;;;1.00;;
16314;SDS011;8266;52.150;4.768;2023-07-13T15:16:48;1.65;;;1.00;;
16314;SDS011;8266;52.150;4.768;2023-07-13T15:19:17;2.45;;;1.17;;
16314;SDS011;8266;52.150;4.768;2023-07-13T15:21:46;1.58;;;0.80;;